createdAt,value
2022-10-13T00:01:25.294Z,20.59
2022-10-13T00:03:53.857Z,20.61
2022-10-13T00:06:25.176Z,21.10
2022-10-13T00:08:53.885Z,20.94
2022-10-13T00:11:25.425Z,20.96
2022-10-13T00:13:57.641Z,21.10
2022-10-13T00:16:26.833Z,20.65
2022-10-13T00:18:55.528Z,21.07
2022-10-13T00:21:26.951Z,20.74
2022-10-13T00:23:56.402Z,20.66
2022-10-13T00:26:27.470Z,20.87
2022-10-13T00:28:58.018Z,21.51
2022-10-13T00:31:28.912Z,20.85
2022-10-13T00:33:59.678Z,20.47
2022-10-13T00:36:28.518Z,20.57
2022-10-13T00:38:58.464Z,21.02
2022-10-13T00:41:27.159Z,20.73
2022-10-13T00:44:01.583Z,21.11
2022-10-13T00:46:32.357Z,21.02
2022-10-13T00:49:06.499Z,20.85
2022-10-13T00:51:41.262Z,20.33
2022-10-13T00:54:12.753Z,20.61
2022-10-13T00:56:42.960Z,20.45
2022-10-13T00:59:22.639Z,20.57
2022-10-13T01:01:51.696Z,20.45
2022-10-13T01:04:23.929Z,20.32
2022-10-13T01:06:53.376Z,20.78
2022-10-13T01:09:21.636Z,20.76
2022-10-13T01:12:02.112Z,20.62
2022-10-13T01:14:37.699Z,20.72
2022-10-13T01:17:17.522Z,21.05
2022-10-13T01:20:17.780Z,20.54
2022-10-13T01:23:08.006Z,20.06
2022-10-13T01:25:57.386Z,20.77
2022-10-13T01:28:53.813Z,21.11
2022-10-13T01:31:29.507Z,20.96
2022-10-13T01:34:06.522Z,21.45
2022-10-13T01:36:42.097Z,21.38
2022-10-13T01:39:22.791Z,21.69
2022-10-13T01:41:56.824Z,21.43
2022-10-13T01:44:30.925Z,21.37
2022-10-13T01:47:02.643Z,21.45
2022-10-13T01:49:35.827Z,21.60
2022-10-13T01:52:12.011Z,21.20
2022-10-13T01:54:41.210Z,21.00
2022-10-13T01:57:31.356Z,20.99
2022-10-13T02:00:00.462Z,20.76
2022-10-13T02:02:38.489Z,20.91
2022-10-13T02:05:17.243Z,20.55
2022-10-13T02:07:50.688Z,20.98
2022-10-13T02:10:26.422Z,21.07
2022-10-13T02:13:00.862Z,20.91
2022-10-13T02:15:35.432Z,21.47
2022-10-13T02:18:06.200Z,21.54
2022-10-13T02:20:35.186Z,21.56
2022-10-13T02:23:14.257Z,21.31
2022-10-13T02:25:43.801Z,21.36
2022-10-13T02:28:14.292Z,21.67
2022-10-13T02:30:44.185Z,21.75
2022-10-13T02:33:15.509Z,21.37
2022-10-13T02:35:44.563Z,21.21
2022-10-13T02:38:13.236Z,21.80
2022-10-13T02:40:41.659Z,21.63
2022-10-13T02:43:09.975Z,20.45
2022-10-13T02:45:39.373Z,20.60
2022-10-13T02:48:08.042Z,20.89
2022-10-13T02:50:38.143Z,20.90
2022-10-13T02:53:06.495Z,20.91
2022-10-13T02:55:34.729Z,21.18
2022-10-13T02:58:03.800Z,21.29
2022-10-13T03:00:32.199Z,21.31
2022-10-13T03:03:01.108Z,21.53
2022-10-13T03:05:29.576Z,21.52
2022-10-13T03:07:59.459Z,21.35
2022-10-13T03:10:28.070Z,21.45
2022-10-13T03:12:57.246Z,21.70
2022-10-13T03:15:25.930Z,21.61
2022-10-13T03:17:54.258Z,21.45
2022-10-13T03:20:23.654Z,21.42
2022-10-13T03:22:52.827Z,21.41
2022-10-13T03:25:22.908Z,20.97
2022-10-13T03:27:51.390Z,20.77
2022-10-13T03:30:19.990Z,20.88
2022-10-13T03:32:48.395Z,20.94
2022-10-13T03:35:17.236Z,20.83
2022-10-13T03:37:45.615Z,21.13
2022-10-13T03:40:14.437Z,20.95
2022-10-13T03:42:44.135Z,20.63
2022-10-13T03:45:13.354Z,20.58
2022-10-13T03:47:42.059Z,20.03
2022-10-13T03:50:12.157Z,19.93
2022-10-13T03:52:40.610Z,20.37
2022-10-13T03:55:09.566Z,20.85
2022-10-13T03:57:38.007Z,21.13
2022-10-13T04:00:10.801Z,21.12
2022-10-13T04:02:39.258Z,20.87
2022-10-13T04:05:08.418Z,20.66
2022-10-13T04:07:36.870Z,20.46
2022-10-13T04:10:10.225Z,20.43
2022-10-13T04:12:39.828Z,20.62
2022-10-13T04:15:11.739Z,20.56
2022-10-13T04:17:40.191Z,20.30
2022-10-13T04:20:10.409Z,20.01
2022-10-13T04:22:39.051Z,20.33
2022-10-13T04:25:09.778Z,20.02
2022-10-13T04:27:39.495Z,20.67
2022-10-13T04:30:13.617Z,20.75
2022-10-13T04:32:42.092Z,20.65
2022-10-13T04:35:10.882Z,20.77
2022-10-13T04:37:44.135Z,20.41
2022-10-13T04:40:15.365Z,20.77
2022-10-13T04:42:43.849Z,20.74
2022-10-13T04:45:14.357Z,20.61
2022-10-13T04:47:42.699Z,20.51
2022-10-13T04:50:11.880Z,20.73
2022-10-13T04:52:40.818Z,20.57
2022-10-13T04:55:10.235Z,20.31
2022-10-13T04:57:38.983Z,20.59
2022-10-13T05:00:09.498Z,20.91
2022-10-13T05:02:44.533Z,20.74
2022-10-13T05:05:13.863Z,20.80
2022-10-13T05:07:42.274Z,20.21
2022-10-13T05:10:11.124Z,19.84
2022-10-13T05:12:39.751Z,20.16
2022-10-13T05:15:09.904Z,20.17
2022-10-13T05:17:39.668Z,20.84
2022-10-13T05:20:10.915Z,21.27
2022-10-13T05:22:39.222Z,20.59
2022-10-13T05:25:08.324Z,20.57
2022-10-13T05:27:36.871Z,20.51
2022-10-13T05:30:06.166Z,20.66
2022-10-13T05:32:36.474Z,20.52
2022-10-13T05:35:07.432Z,20.92
2022-10-13T05:37:35.731Z,21.02
2022-10-13T05:40:04.166Z,20.51
2022-10-13T05:42:32.810Z,20.97
2022-10-13T05:45:01.143Z,20.87
2022-10-13T05:47:29.562Z,20.72
2022-10-13T05:49:57.922Z,20.86
2022-10-13T05:52:29.141Z,21.05
2022-10-13T05:55:00.445Z,21.23
2022-10-13T05:57:33.559Z,20.81
2022-10-13T06:00:06.609Z,20.75
2022-10-13T06:02:40.426Z,20.78
2022-10-13T06:05:14.710Z,20.66
2022-10-13T06:07:45.887Z,20.28
2022-10-13T06:10:15.721Z,20.49
2022-10-13T06:12:44.069Z,20.46
2022-10-13T06:15:12.673Z,20.67
2022-10-13T06:17:41.390Z,20.86
2022-10-13T06:20:11.597Z,20.92
2022-10-13T06:22:40.491Z,21.30
2022-10-13T06:25:11.257Z,20.36
2022-10-13T06:27:39.634Z,21.09
2022-10-13T06:30:09.869Z,21.10
2022-10-13T06:32:38.188Z,21.16
2022-10-13T06:35:08.701Z,21.26
2022-10-13T06:37:36.980Z,20.85
2022-10-13T06:40:06.341Z,20.48
2022-10-13T06:42:36.584Z,20.69
2022-10-13T06:45:05.519Z,20.21
2022-10-13T06:47:33.940Z,20.66
2022-10-13T06:50:02.210Z,21.67
2022-10-13T06:52:30.513Z,22.16
2022-10-13T06:54:59.189Z,22.02
2022-10-13T06:57:27.594Z,22.00
2022-10-13T06:59:57.382Z,22.19
2022-10-13T07:02:25.770Z,22.36
2022-10-13T07:04:54.173Z,22.59
2022-10-13T07:07:22.686Z,22.66
2022-10-13T07:09:51.369Z,22.48
2022-10-13T07:12:21.053Z,22.44
2022-10-13T07:14:50.008Z,22.53
2022-10-13T07:17:20.642Z,22.75
2022-10-13T07:19:49.349Z,22.75
2022-10-13T07:22:17.798Z,22.63
2022-10-13T07:24:46.142Z,22.28
2022-10-13T07:27:14.444Z,22.10
2022-10-13T07:29:42.940Z,21.75
2022-10-13T07:32:11.361Z,21.88
2022-10-13T07:34:41.227Z,21.84
2022-10-13T07:37:10.076Z,22.26
2022-10-13T07:39:39.564Z,22.32
2022-10-13T07:42:07.933Z,21.87
2022-10-13T07:44:36.647Z,22.10
2022-10-13T07:47:05.053Z,22.49
2022-10-13T07:49:33.417Z,22.46
2022-10-13T07:52:03.159Z,21.92
2022-10-13T07:54:31.791Z,21.88
2022-10-13T07:57:00.109Z,22.47
2022-10-13T07:59:28.762Z,23.29
2022-10-13T08:01:57.293Z,23.80
2022-10-13T08:04:25.640Z,23.45
2022-10-13T08:06:53.972Z,23.48
2022-10-13T08:09:23.671Z,23.44
2022-10-13T08:11:58.839Z,23.59
2022-10-13T08:14:29.106Z,23.74
2022-10-13T08:16:57.732Z,24.27
2022-10-13T08:19:28.402Z,24.21
2022-10-13T08:21:58.853Z,24.81
2022-10-13T08:24:30.813Z,24.21
2022-10-13T08:26:59.187Z,24.24
2022-10-13T08:29:27.562Z,23.19
2022-10-13T08:31:57.243Z,24.27
2022-10-13T08:34:26.260Z,24.37
2022-10-13T08:36:56.665Z,24.51
2022-10-13T08:39:26.373Z,24.47
2022-10-13T08:41:58.086Z,24.54
2022-10-13T08:47:38.968Z,23.72
2022-10-13T08:50:15.131Z,23.09
2022-10-13T08:52:50.871Z,23.63
2022-10-13T08:55:31.245Z,23.26
2022-10-13T08:58:02.486Z,23.85
2022-10-13T09:00:31.894Z,24.05
2022-10-13T09:03:21.292Z,24.56
2022-10-13T09:06:03.771Z,23.57
2022-10-13T09:08:39.646Z,23.01
2022-10-13T09:11:09.788Z,23.97
2022-10-13T09:13:40.217Z,24.27
2022-10-13T09:16:09.579Z,24.14
2022-10-13T09:18:38.505Z,24.25
2022-10-13T09:21:16.814Z,24.00
2022-10-13T09:23:45.228Z,23.77
2022-10-13T09:26:22.197Z,24.59
2022-10-13T09:28:53.825Z,24.46
2022-10-13T09:31:28.474Z,24.60
2022-10-13T09:34:01.989Z,24.37
2022-10-13T09:36:31.371Z,24.82
2022-10-13T09:39:17.121Z,24.28
2022-10-13T09:41:45.998Z,24.04
2022-10-13T09:44:22.134Z,23.70
2022-10-13T09:46:57.113Z,24.40
2022-10-13T09:49:39.664Z,24.22
2022-10-13T09:52:18.328Z,24.54
2022-10-13T09:54:51.106Z,24.51
2022-10-13T09:57:30.131Z,24.44
2022-10-13T10:00:14.648Z,23.36
2022-10-13T10:02:51.170Z,24.49
2022-10-13T10:05:26.644Z,24.29
2022-10-13T10:07:58.077Z,24.52
2022-10-13T10:10:33.707Z,24.13
2022-10-13T10:13:03.072Z,23.68
2022-10-13T10:15:49.649Z,23.96
2022-10-13T10:18:23.671Z,23.03
2022-10-13T10:21:10.987Z,23.04
2022-10-13T10:23:47.867Z,23.18
2022-10-13T10:26:25.796Z,23.48
2022-10-13T10:29:20.819Z,24.47
2022-10-13T10:32:06.360Z,24.09
2022-10-13T10:34:39.448Z,25.08
2022-10-13T10:37:44.990Z,24.48
2022-10-13T10:40:29.550Z,23.82
2022-10-13T10:43:22.849Z,24.96
2022-10-13T10:45:51.221Z,25.80
2022-10-13T10:48:26.111Z,25.72
2022-10-13T10:50:55.504Z,25.64
2022-10-13T10:53:33.101Z,25.90
2022-10-13T10:56:13.711Z,24.91
2022-10-13T10:58:51.010Z,24.47
2022-10-13T11:01:32.871Z,24.56
2022-10-13T11:04:36.681Z,23.24
2022-10-13T11:07:05.740Z,24.54
2022-10-13T11:10:20.957Z,24.34
2022-10-13T11:13:19.343Z,24.45
2022-10-13T11:15:48.946Z,24.78
2022-10-13T11:19:28.972Z,25.30
2022-10-13T11:22:19.534Z,25.12
2022-10-13T11:25:04.420Z,25.47
2022-10-13T11:27:45.469Z,25.41
2022-10-13T11:30:43.183Z,25.83
2022-10-13T11:33:57.372Z,25.39
2022-10-13T11:36:55.539Z,24.95
2022-10-13T11:40:10.102Z,24.90
2022-10-13T11:43:19.621Z,24.84
2022-10-13T11:46:17.970Z,24.70
2022-10-13T11:49:43.672Z,25.10
2022-10-13T11:52:37.981Z,24.83
2022-10-13T11:55:13.975Z,24.51
2022-10-13T11:57:42.295Z,23.97
2022-10-13T12:00:17.362Z,23.78
2022-10-13T12:02:53.745Z,24.40
2022-10-13T12:05:25.441Z,25.05
2022-10-13T12:07:58.532Z,24.88
2022-10-13T12:10:32.778Z,24.58
2022-10-13T12:13:02.097Z,25.40
2022-10-13T12:15:36.379Z,24.94
2022-10-13T12:18:21.343Z,25.63
2022-10-13T12:20:55.318Z,26.27
2022-10-13T12:23:25.705Z,26.08
2022-10-13T12:25:58.378Z,26.44
2022-10-13T12:28:30.806Z,24.97
2022-10-13T12:31:00.868Z,25.95
2022-10-13T12:33:32.558Z,26.55
2022-10-13T12:36:15.001Z,25.96
2022-10-13T12:38:50.398Z,25.99
2022-10-13T12:41:24.114Z,27.47
2022-10-13T12:43:53.068Z,27.08
2022-10-13T12:46:41.529Z,27.07
2022-10-13T12:49:16.466Z,27.98
2022-10-13T12:51:47.583Z,26.29
2022-10-13T12:54:24.255Z,25.53
2022-10-13T12:56:56.415Z,26.14
2022-10-13T12:59:26.306Z,26.50
2022-10-13T13:01:58.066Z,27.07
2022-10-13T13:04:44.747Z,26.02
2022-10-13T13:07:40.179Z,26.09
2022-10-13T13:10:27.628Z,26.55
2022-10-13T13:12:57.373Z,26.00
2022-10-13T13:15:36.607Z,26.56
2022-10-13T13:18:29.843Z,26.18
2022-10-13T13:21:01.899Z,26.36
2022-10-13T13:23:34.310Z,25.78
2022-10-13T13:26:11.623Z,26.07
2022-10-13T13:28:41.823Z,25.78
2022-10-13T13:31:11.818Z,25.33
2022-10-13T13:33:40.273Z,25.77
2022-10-13T13:36:17.499Z,25.61
2022-10-13T13:38:45.914Z,24.62
2022-10-13T13:41:16.673Z,25.20
2022-10-13T13:43:45.654Z,25.54
2022-10-13T13:46:18.553Z,25.94
2022-10-13T13:48:46.905Z,26.07
2022-10-13T13:51:15.465Z,25.78
2022-10-13T13:53:43.913Z,25.99
2022-10-13T13:56:15.970Z,25.85
2022-10-13T13:58:44.569Z,25.89
2022-10-13T14:01:14.232Z,25.43
2022-10-13T14:03:42.709Z,24.71
2022-10-13T14:06:17.942Z,25.10
2022-10-13T14:08:46.249Z,25.31
2022-10-13T14:11:16.128Z,25.33
2022-10-13T14:13:44.428Z,25.55
2022-10-13T14:16:18.721Z,25.02
2022-10-13T14:18:47.256Z,25.32
2022-10-13T14:21:15.870Z,25.20
2022-10-13T14:23:47.039Z,24.55
2022-10-13T14:26:17.598Z,24.59
2022-10-13T14:28:46.377Z,24.41
2022-10-13T14:31:15.024Z,25.26
2022-10-13T14:33:43.576Z,24.58
2022-10-13T14:36:12.109Z,24.91
2022-10-13T14:38:40.780Z,25.18
2022-10-13T14:41:09.924Z,25.08
2022-10-13T14:43:39.576Z,25.09
2022-10-13T14:46:09.220Z,25.39
2022-10-13T14:48:39.346Z,25.52
2022-10-13T14:51:08.421Z,25.54
2022-10-13T14:53:38.614Z,25.41
2022-10-13T14:56:19.281Z,24.69
2022-10-13T14:58:50.216Z,24.71
2022-10-13T15:01:19.779Z,25.12
2022-10-13T15:03:48.590Z,24.99
2022-10-13T15:06:19.339Z,24.55
2022-10-13T15:08:48.661Z,23.34
2022-10-13T15:11:18.561Z,23.43
2022-10-13T15:13:48.587Z,23.75
2022-10-13T15:16:19.579Z,23.81
2022-10-13T15:18:48.260Z,23.88
2022-10-13T15:21:17.390Z,22.85
2022-10-13T15:23:47.165Z,23.02
2022-10-13T15:26:20.680Z,22.96
2022-10-13T15:28:53.100Z,23.37
2022-10-13T15:31:24.251Z,23.45
2022-10-13T15:33:54.890Z,23.02
2022-10-13T15:36:25.239Z,22.97
2022-10-13T15:38:53.908Z,22.99
2022-10-13T15:41:25.596Z,23.29
2022-10-13T15:43:55.854Z,23.34
2022-10-13T15:46:26.275Z,22.92
2022-10-13T15:48:56.880Z,22.57
2022-10-13T15:51:27.308Z,23.08
2022-10-13T15:53:56.272Z,23.05
2022-10-13T15:56:24.822Z,23.19
2022-10-13T15:58:58.875Z,22.45
2022-10-13T16:01:28.358Z,22.45
2022-10-13T16:03:56.868Z,22.47
2022-10-13T16:06:26.581Z,22.78
2022-10-13T16:08:55.153Z,23.10
2022-10-13T16:11:24.315Z,22.75
2022-10-13T16:13:55.178Z,22.40
2022-10-13T16:16:25.050Z,22.69
2022-10-13T16:18:53.515Z,22.49
2022-10-13T16:21:25.732Z,22.85
2022-10-13T16:23:54.485Z,22.76
2022-10-13T16:26:23.268Z,22.69
2022-10-13T16:28:55.487Z,22.66
2022-10-13T16:31:25.838Z,22.87
2022-10-13T16:33:54.126Z,22.95
2022-10-13T16:36:22.879Z,23.28
2022-10-13T16:38:51.141Z,22.86
2022-10-13T16:41:19.858Z,22.95
2022-10-13T16:43:49.305Z,22.65
2022-10-13T16:46:19.824Z,23.01
2022-10-13T16:48:49.879Z,22.62
2022-10-13T16:51:21.599Z,22.11
2022-10-13T16:53:50.733Z,22.42
2022-10-13T16:56:22.325Z,22.24
2022-10-13T16:58:51.697Z,22.45
2022-10-13T17:01:20.633Z,21.90
2022-10-13T17:03:52.040Z,22.33
2022-10-13T17:06:23.519Z,22.06
2022-10-13T17:08:52.166Z,22.40
2022-10-13T17:11:23.390Z,22.51
2022-10-13T17:13:52.051Z,22.18
2022-10-13T17:16:22.014Z,21.78
2022-10-13T17:18:51.931Z,22.54
2022-10-13T17:21:22.135Z,22.39
2022-10-13T17:23:50.833Z,21.33
2022-10-13T17:26:21.071Z,21.14
2022-10-13T17:28:50.614Z,21.47
2022-10-13T17:31:21.858Z,21.71
2022-10-13T17:33:52.943Z,21.47
2022-10-13T17:36:25.214Z,20.91
2022-10-13T17:38:56.369Z,21.44
2022-10-13T17:41:25.714Z,21.15
2022-10-13T17:43:55.394Z,21.77
2022-10-13T17:46:37.322Z,22.07
2022-10-13T17:49:12.451Z,22.29
2022-10-13T17:51:41.698Z,21.79
2022-10-13T17:54:15.537Z,21.89
2022-10-13T17:56:45.314Z,21.90
2022-10-13T17:59:13.681Z,20.85
2022-10-13T18:01:43.052Z,21.30
2022-10-13T18:04:15.932Z,21.77
2022-10-13T18:06:45.384Z,21.60
2022-10-13T18:09:16.321Z,20.95
2022-10-13T18:11:50.327Z,21.50
2022-10-13T18:14:20.868Z,21.23
2022-10-13T18:16:49.576Z,21.77
2022-10-13T18:19:20.777Z,21.89
2022-10-13T18:21:49.235Z,21.24
2022-10-13T18:24:20.183Z,21.38
2022-10-13T18:26:49.453Z,21.45
2022-10-13T18:29:17.847Z,20.76
2022-10-13T18:31:48.618Z,20.11
2022-10-13T18:34:21.212Z,19.58
2022-10-13T18:36:54.868Z,20.10
2022-10-13T18:39:27.767Z,19.95
2022-10-13T18:41:58.440Z,20.19
2022-10-13T18:44:27.378Z,20.77
2022-10-13T18:46:56.478Z,20.86
2022-10-13T18:49:31.244Z,20.88
2022-10-13T18:52:00.774Z,21.04
2022-10-13T18:54:30.257Z,21.28
2022-10-13T18:56:59.846Z,21.24
2022-10-13T18:59:28.964Z,21.25
2022-10-13T19:01:57.892Z,21.03
2022-10-13T19:04:28.373Z,21.03
2022-10-13T19:06:56.859Z,20.60
2022-10-13T19:09:26.482Z,20.39
2022-10-13T19:11:57.487Z,20.70
2022-10-13T19:14:27.390Z,20.61
2022-10-13T19:17:00.984Z,20.63
2022-10-13T19:19:32.010Z,20.59
2022-10-13T19:22:00.379Z,20.68
2022-10-13T19:24:30.004Z,20.90
2022-10-13T19:26:58.653Z,20.45
2022-10-13T19:29:27.157Z,20.18
2022-10-13T19:31:56.828Z,20.63
2022-10-13T19:34:25.369Z,20.98
2022-10-13T19:37:00.126Z,20.45
2022-10-13T19:39:29.561Z,20.44
2022-10-13T19:41:59.506Z,20.03
2022-10-13T19:44:28.997Z,20.36
2022-10-13T19:46:57.567Z,20.86
2022-10-13T19:49:27.009Z,20.76
2022-10-13T19:51:57.379Z,20.73
2022-10-13T19:54:30.163Z,20.50
2022-10-13T19:57:01.569Z,20.61
2022-10-13T19:59:33.563Z,20.77
2022-10-13T20:02:03.122Z,20.79
2022-10-13T20:04:31.484Z,20.58
2022-10-13T20:07:01.752Z,20.77
2022-10-13T20:09:30.461Z,19.96
2022-10-13T20:11:59.054Z,20.13
2022-10-13T20:14:27.983Z,19.84
2022-10-13T20:16:58.631Z,19.84
2022-10-13T20:19:27.275Z,20.00
2022-10-13T20:22:02.632Z,20.17
2022-10-13T20:24:33.486Z,19.96
2022-10-13T20:27:01.951Z,20.02
2022-10-13T20:29:30.974Z,19.85
2022-10-13T20:31:59.480Z,20.24
2022-10-13T20:34:38.892Z,19.96
2022-10-13T20:37:09.232Z,19.85
2022-10-13T20:39:38.625Z,20.16
2022-10-13T20:42:07.713Z,20.54
2022-10-13T20:44:36.751Z,20.19
2022-10-13T20:47:05.862Z,20.43
2022-10-13T20:49:34.337Z,20.43
2022-10-13T20:52:02.747Z,20.41
2022-10-13T20:54:32.573Z,20.40
2022-10-13T20:57:02.913Z,20.60
2022-10-13T20:59:31.307Z,20.96
2022-10-13T21:01:59.872Z,20.63
2022-10-13T21:04:28.309Z,20.70
2022-10-13T21:06:56.770Z,20.16
2022-10-13T21:09:25.288Z,20.23
2022-10-13T21:11:54.931Z,20.23
2022-10-13T21:14:23.602Z,19.80
2022-10-13T21:16:52.619Z,20.00
2022-10-13T21:19:21.897Z,20.15
2022-10-13T21:21:50.729Z,20.14
2022-10-13T21:24:20.805Z,19.81
2022-10-13T21:26:51.755Z,20.32
2022-10-13T21:29:21.757Z,20.31
2022-10-13T21:31:51.648Z,20.48
2022-10-13T21:34:23.382Z,20.22
2022-10-13T21:36:51.907Z,20.02
2022-10-13T21:39:20.803Z,19.79
2022-10-13T21:41:49.306Z,19.77
2022-10-13T21:44:17.762Z,19.68
2022-10-13T21:46:47.655Z,20.03
2022-10-13T21:49:16.559Z,20.01
2022-10-13T21:51:45.245Z,20.42
2022-10-13T21:54:15.446Z,20.37
2022-10-13T21:56:44.311Z,19.57
2022-10-13T21:59:14.063Z,19.87
2022-10-13T22:01:43.259Z,19.84
2022-10-13T22:04:15.631Z,20.01
2022-10-13T22:06:45.004Z,19.46
2022-10-13T22:09:14.314Z,20.04
2022-10-13T22:11:43.493Z,19.93
2022-10-13T22:14:12.372Z,20.20
2022-10-13T22:16:43.853Z,19.95
2022-10-13T22:19:14.729Z,20.36
2022-10-13T22:21:46.209Z,20.32
2022-10-13T22:24:17.430Z,20.33
2022-10-13T22:26:48.112Z,19.92
2022-10-13T22:29:22.123Z,19.96
2022-10-13T22:31:52.063Z,20.57
2022-10-13T22:34:24.652Z,20.43
2022-10-13T22:36:54.814Z,20.43
2022-10-13T22:39:23.993Z,20.56
2022-10-13T22:41:53.652Z,20.13
2022-10-13T22:44:23.464Z,20.60
2022-10-13T22:46:52.260Z,20.86
2022-10-13T22:49:20.732Z,20.50
2022-10-13T22:51:50.714Z,20.62
2022-10-13T22:54:19.141Z,20.14
2022-10-13T22:56:47.850Z,19.89
2022-10-13T22:59:16.698Z,20.25
2022-10-13T23:01:45.255Z,20.23
2022-10-13T23:04:13.744Z,20.66
2022-10-13T23:06:42.544Z,20.02
2022-10-13T23:09:14.764Z,19.68
2022-10-13T23:11:43.093Z,19.99
2022-10-13T23:14:11.573Z,20.22
2022-10-13T23:16:39.923Z,20.25
2022-10-13T23:19:08.662Z,20.07
2022-10-13T23:21:37.137Z,20.11
2022-10-13T23:24:08.334Z,20.08
2022-10-13T23:26:38.213Z,19.93
2022-10-13T23:29:07.109Z,19.90
2022-10-13T23:31:35.715Z,19.87
2022-10-13T23:34:04.091Z,19.77
2022-10-13T23:36:33.842Z,19.71
2022-10-13T23:39:05.628Z,20.12
2022-10-13T23:41:34.498Z,19.64
2022-10-13T23:44:04.289Z,19.83
2022-10-13T23:46:32.837Z,19.53
2022-10-13T23:49:01.278Z,20.03
2022-10-13T23:51:29.704Z,20.05
2022-10-13T23:53:58.157Z,19.89
2022-10-13T23:56:26.846Z,20.20
2022-10-13T23:58:55.211Z,19.89
